Time;durP1;ratioP1;P1;durP2;ratioP2;P2;SDS_P1;SDS_P2;PMS_P1;PMS_P2;Temp;Humidity;BMP_temperature;BMP_pressure;BME280_temperature;BME280_humidity;BME280_pressure;Samples;Min_cycle;Max_cycle;Signal;HPM_P1;HPM_P2
2023/08/16 00:01:57;;;;;;;9.52;4.45;;;;;;;18.93;85.51;101791.31;5009611;28;20054;-77
2023/08/16 00:04:23;;;;;;;6.97;4.07;;;;;;;18.90;85.15;101787.13;5011476;28;20398;-77
2023/08/16 00:06:49;;;;;;;8.35;3.97;;;;;;;18.92;86.00;101790.47;5047939;28;20033;-77
2023/08/16 00:09:16;;;;;;;6.70;3.83;;;;;;;18.93;86.15;101794.00;5031520;28;20561;-77
2023/08/16 00:11:42;;;;;;;10.48;4.47;;;;;;;18.89;85.90;101805.94;5051084;28;20112;-77
2023/08/16 00:14:10;;;;;;;10.68;4.15;;;;;;;18.93;85.78;101802.00;5047300;28;20121;-77
2023/08/16 00:16:35;;;;;;;7.10;4.43;;;;;;;18.91;85.70;101803.97;5032596;28;20048;-77
2023/08/16 00:19:01;;;;;;;8.43;4.03;;;;;;;18.92;86.81;101805.66;5040540;28;20039;-77
2023/08/16 00:21:27;;;;;;;5.47;3.42;;;;;;;18.90;88.14;101799.63;5050510;28;20484;-77
2023/08/16 00:23:52;;;;;;;9.77;4.20;;;;;;;18.83;86.70;101795.84;5051750;28;20029;-77
2023/08/16 00:26:17;;;;;;;6.40;4.00;;;;;;;18.82;87.98;101803.00;5047387;28;20524;-77
2023/08/16 00:28:45;;;;;;;6.90;3.92;;;;;;;18.80;88.97;101799.63;5049342;28;20044;-78
2023/08/16 00:31:11;;;;;;;5.90;3.30;;;;;;;18.82;89.79;101800.34;5051599;28;20067;-77
2023/08/16 00:33:36;;;;;;;9.35;4.05;;;;;;;18.80;90.35;101794.28;5027382;28;20064;-77
2023/08/16 00:36:02;;;;;;;5.28;3.50;;;;;;;18.78;90.19;101801.59;5032229;28;20029;-77
2023/08/16 00:38:27;;;;;;;7.85;4.78;;;;;;;18.68;91.23;101803.44;5041050;28;20032;-77
2023/08/16 00:40:53;;;;;;;5.63;3.85;;;;;;;18.65;91.56;101804.56;5024431;28;20052;-77
2023/08/16 00:43:19;;;;;;;7.95;4.45;;;;;;;18.59;92.40;101810.44;5031409;28;20022;-77
2023/08/16 00:45:45;;;;;;;7.68;4.40;;;;;;;18.51;93.47;101812.97;5034634;28;20021;-77
2023/08/16 00:48:13;;;;;;;6.07;4.18;;;;;;;18.45;93.55;101814.38;5031180;28;20117;-77
2023/08/16 00:50:39;;;;;;;8.50;4.40;;;;;;;18.41;94.30;101812.09;5040503;28;20048;-77
2023/08/16 00:53:05;;;;;;;10.98;4.50;;;;;;;18.42;94.43;101819.16;5051583;28;20389;-77
2023/08/16 00:55:32;;;;;;;5.75;4.70;;;;;;;18.34;94.79;101821.66;5049234;28;20035;-77
2023/08/16 00:57:57;;;;;;;6.10;4.80;;;;;;;18.32;94.83;101821.78;5027789;28;20026;-77
2023/08/16 01:00:23;;;;;;;8.00;5.03;;;;;;;18.26;95.30;101821.50;5040685;28;20108;-77
2023/08/16 01:02:48;;;;;;;6.85;4.93;;;;;;;18.21;95.82;101826.41;5031896;28;20052;-77
2023/08/16 01:05:15;;;;;;;5.72;4.57;;;;;;;18.13;96.45;101830.63;5031635;28;20025;-77
2023/08/16 01:07:45;;;;;;;7.78;5.03;;;;;;;18.14;96.84;101826.97;5030619;28;20032;-77
2023/08/16 01:10:10;;;;;;;7.38;5.07;;;;;;;18.10;97.87;101830.91;5045323;28;20028;-77
2023/08/16 01:12:47;;;;;;;6.32;4.43;;;;;;;18.13;97.79;101835.97;5050713;28;20098;-77
2023/08/16 01:15:19;;;;;;;12.02;5.15;;;;;;;18.08;97.98;101832.88;5024125;28;20029;-77
2023/08/16 01:17:45;;;;;;;10.02;4.43;;;;;;;18.05;98.09;101829.63;5030784;28;20021;-77
2023/08/16 01:20:14;;;;;;;9.10;4.90;;;;;;;18.00;98.11;101838.00;5046264;28;20029;-77
2023/08/16 01:22:57;;;;;;;6.82;4.35;;;;;;;18.07;98.52;101846.31;5049271;28;20025;-77
2023/08/16 01:25:49;;;;;;;5.97;4.15;;;;;;;18.05;97.68;101848.28;5050442;28;20024;-77
2023/08/16 01:28:16;;;;;;;9.15;4.55;;;;;;;17.97;97.64;101848.94;5047391;28;20033;-77
2023/08/16 01:30:45;;;;;;;6.00;4.78;;;;;;;17.92;97.81;101848.50;5031134;28;20148;-77
2023/08/16 01:33:13;;;;;;;6.40;4.95;;;;;;;17.91;98.01;101851.31;5029715;28;20030;-77
2023/08/16 01:35:39;;;;;;;8.60;5.63;;;;;;;17.92;98.08;101853.84;5030161;28;20037;-77
2023/08/16 01:38:05;;;;;;;9.88;5.20;;;;;;;17.86;98.64;101854.38;5049121;28;20423;-77
2023/08/16 01:40:56;;;;;;;6.13;4.47;;;;;;;17.93;98.67;101860.00;5033933;28;20436;-77
2023/08/16 01:43:22;;;;;;;7.78;4.88;;;;;;;17.88;98.47;101852.44;5040412;28;20045;-77
2023/08/16 01:45:50;;;;;;;7.97;5.28;;;;;;;17.77;98.94;101847.22;5041125;28;20378;-77
2023/08/16 01:48:16;;;;;;;9.00;5.30;;;;;;;17.72;98.73;101838.81;5027410;28;20036;-77
2023/08/16 01:50:44;;;;;;;9.82;5.80;;;;;;;17.73;99.42;101838.66;5028531;28;20029;-77
2023/08/16 01:53:10;;;;;;;8.00;5.32;;;;;;;17.70;99.89;101844.25;5028547;28;20029;-77
2023/08/16 01:55:35;;;;;;;8.73;5.07;;;;;;;17.63;99.83;101844.91;5033597;28;20037;-77
2023/08/16 01:58:01;;;;;;;7.47;4.70;;;;;;;17.67;100.00;101851.69;5030286;28;20316;-77
2023/08/16 02:00:26;;;;;;;7.82;5.13;;;;;;;17.70;100.00;101848.75;5030753;28;20439;-77
2023/08/16 02:02:51;;;;;;;11.73;5.22;;;;;;;17.73;100.00;101853.78;5025305;28;20124;-78
2023/08/16 02:05:17;;;;;;;9.65;5.43;;;;;;;17.68;100.00;101845.38;5030558;28;20579;-77
2023/08/16 02:07:42;;;;;;;6.72;5.00;;;;;;;17.70;100.00;101848.75;5045206;28;20388;-77
2023/08/16 02:10:11;;;;;;;7.32;5.28;;;;;;;17.69;100.00;101849.72;5034312;28;20111;-77
2023/08/16 02:12:36;;;;;;;7.05;5.85;;;;;;;17.59;100.00;101849.63;5030176;28;20413;-77
2023/08/16 02:15:02;;;;;;;11.43;5.43;;;;;;;17.60;100.00;101858.47;5029116;28;20033;-77
2023/08/16 02:17:28;;;;;;;9.70;6.00;;;;;;;17.53;100.00;101856.34;5028597;28;20393;-78
2023/08/16 02:19:53;;;;;;;8.20;5.75;;;;;;;17.41;100.00;101854.75;5039452;28;20037;-77
2023/08/16 02:22:19;;;;;;;11.80;6.00;;;;;;;17.48;100.00;101863.03;5042816;28;20036;-77
2023/08/16 02:24:44;;;;;;;8.18;5.53;;;;;;;17.45;100.00;101856.16;5032991;28;20034;-77
2023/08/16 02:27:09;;;;;;;7.38;5.50;;;;;;;17.47;100.00;101856.03;5035896;28;20120;-77
2023/08/16 02:29:35;;;;;;;10.45;6.20;;;;;;;17.45;100.00;101856.16;5047183;28;20504;-77
2023/08/16 02:32:00;;;;;;;10.20;6.10;;;;;;;17.36;100.00;101851.66;5047825;28;20803;-77
2023/08/16 02:34:26;;;;;;;9.80;6.35;;;;;;;17.36;100.00;101850.81;5049122;28;20049;-77
2023/08/16 02:36:51;;;;;;;12.35;6.20;;;;;;;17.34;100.00;101856.25;5028896;28;20087;-77
2023/08/16 02:39:17;;;;;;;11.57;6.55;;;;;;;17.40;100.00;101853.06;5013709;28;20457;-77
2023/08/16 02:41:42;;;;;;;9.02;6.35;;;;;;;17.40;100.00;101850.41;5029801;28;20022;-77
2023/08/16 02:44:08;;;;;;;9.38;6.38;;;;;;;17.44;100.00;101846.50;5028154;28;20474;-77
2023/08/16 02:46:33;;;;;;;8.35;6.03;;;;;;;17.43;100.00;101836.84;5026819;28;20057;-77
2023/08/16 02:48:59;;;;;;;9.65;6.50;;;;;;;17.43;100.00;101836.84;5046793;28;20022;-77
2023/08/16 02:51:24;;;;;;;8.70;6.35;;;;;;;17.41;100.00;101833.47;5040270;28;20033;-77
2023/08/16 02:53:49;;;;;;;12.43;6.47;;;;;;;17.42;100.00;101840.47;5031345;28;20032;-77
2023/08/16 02:56:15;;;;;;;11.15;6.70;;;;;;;17.38;100.00;101846.19;5023705;28;20028;-77
2023/08/16 02:58:40;;;;;;;12.88;7.63;;;;;;;17.26;100.00;101841.94;5029448;28;20374;-77
2023/08/16 03:01:06;;;;;;;13.65;7.70;;;;;;;17.18;100.00;101850.56;5027872;28;20057;-77
2023/08/16 03:03:31;;;;;;;12.30;7.13;;;;;;;17.17;100.00;101851.53;5032063;28;20488;-77
2023/08/16 03:05:57;;;;;;;10.07;7.25;;;;;;;17.15;100.00;101845.50;5049137;28;20180;-77
2023/08/16 03:08:22;;;;;;;12.90;7.80;;;;;;;17.12;100.00;101853.75;5046935;28;20021;-77
2023/08/16 03:10:48;;;;;;;9.90;7.63;;;;;;;17.08;100.00;101853.19;5048737;28;20111;-77
2023/08/16 03:13:13;;;;;;;11.27;7.85;;;;;;;17.09;100.00;101852.19;5034269;28;20033;-77
2023/08/16 03:15:39;;;;;;;10.13;7.40;;;;;;;17.09;100.00;101857.53;5050043;28;20055;-77
2023/08/16 03:18:04;;;;;;;12.38;8.02;;;;;;;17.15;100.00;101858.81;5049010;28;20040;-77
2023/08/16 03:20:29;;;;;;;9.98;8.00;;;;;;;17.08;100.00;101857.66;5041684;28;20079;-77
2023/08/16 03:22:55;;;;;;;12.18;8.02;;;;;;;17.08;100.00;101852.34;5049723;28;20107;-77
2023/08/16 03:25:20;;;;;;;11.18;7.63;;;;;;;17.15;100.00;101848.16;5048255;28;20032;-77
2023/08/16 03:27:46;;;;;;;13.07;8.30;;;;;;;17.10;100.00;101856.53;5034293;28;20105;-77
2023/08/16 03:30:11;;;;;;;16.00;8.73;;;;;;;17.16;100.00;101844.53;5029667;28;20501;-77
2023/08/16 03:32:37;;;;;;;11.75;8.50;;;;;;;17.20;100.00;101851.28;5030126;28;20017;-77
2023/08/16 03:35:03;;;;;;;10.77;8.63;;;;;;;17.22;100.00;101844.03;5028924;28;20469;-77
2023/08/16 03:37:31;;;;;;;12.13;8.40;;;;;;;17.22;100.00;101849.34;5035248;28;20036;-77
2023/08/16 03:39:57;;;;;;;10.90;8.43;;;;;;;17.27;100.00;101857.78;5034399;28;20037;-77
2023/08/16 03:42:22;;;;;;;12.70;9.07;;;;;;;17.21;100.00;101863.59;5040318;28;20021;-77
2023/08/16 03:44:48;;;;;;;12.93;8.57;;;;;;;17.25;100.00;101865.03;5026092;28;20366;-77
2023/08/16 03:47:13;;;;;;;13.30;9.45;;;;;;;17.20;100.00;101861.91;5036470;28;20083;-77
2023/08/16 03:49:39;;;;;;;10.68;9.10;;;;;;;17.20;100.00;101860.09;5051065;28;20028;-77
2023/08/16 03:52:04;;;;;;;14.27;9.73;;;;;;;17.12;100.00;101864.38;5051398;28;20025;-77
2023/08/16 03:54:29;;;;;;;14.18;9.85;;;;;;;17.12;100.00;101875.03;5051992;28;20384;-77
2023/08/16 03:56:56;;;;;;;12.15;9.60;;;;;;;17.09;100.00;101870.81;5029821;28;20041;-77
2023/08/16 03:59:22;;;;;;;10.52;9.07;;;;;;;17.10;100.00;101882.28;5032293;28;20497;-77
2023/08/16 04:01:47;;;;;;;13.32;9.88;;;;;;;17.03;100.00;101883.78;5025575;28;20039;-77
2023/08/16 04:04:13;;;;;;;12.70;10.05;;;;;;;17.05;100.00;101887.16;5011851;28;20025;-77
2023/08/16 04:06:39;;;;;;;10.25;9.10;;;;;;;17.06;100.00;101888.84;5029657;28;20043;-77
2023/08/16 04:09:04;;;;;;;10.85;9.65;;;;;;;17.02;100.00;101874.97;5051407;28;20032;-77
2023/08/16 04:11:30;;;;;;;14.15;10.00;;;;;;;16.97;100.00;101874.53;5046533;28;20033;-77
2023/08/16 04:13:55;;;;;;;10.90;9.18;;;;;;;16.92;100.00;101885.56;5052083;28;20558;-77
2023/08/16 04:16:21;;;;;;;13.43;9.70;;;;;;;16.81;100.00;101882.09;5050581;28;20035;-77
2023/08/16 04:18:46;;;;;;;13.02;10.00;;;;;;;16.73;100.00;101890.69;5022863;28;20055;-77
2023/08/16 04:21:11;;;;;;;13.95;10.30;;;;;;;16.71;100.00;101892.66;5022669;28;20021;-76
2023/08/16 04:23:37;;;;;;;11.82;9.43;;;;;;;16.71;100.00;101889.16;5051011;28;20107;-77
2023/08/16 04:26:02;;;;;;;12.70;9.45;;;;;;;16.73;100.00;101888.03;5034680;28;20516;-77
2023/08/16 04:28:28;;;;;;;12.25;9.52;;;;;;;16.75;100.00;101890.56;5038876;28;20056;-77
2023/08/16 04:30:53;;;;;;;11.23;9.35;;;;;;;16.73;100.00;101885.38;5050668;28;20709;-77
2023/08/16 04:33:18;;;;;;;11.70;9.30;;;;;;;16.73;100.00;101893.34;5052233;28;20033;-77
2023/08/16 04:35:44;;;;;;;16.27;10.82;;;;;;;16.63;100.00;101886.25;5029862;28;20025;-77
2023/08/16 04:38:09;;;;;;;11.10;8.80;;;;;;;16.67;100.00;101885.91;5041028;28;20029;-77
2023/08/16 04:40:35;;;;;;;15.50;9.70;;;;;;;16.62;100.00;101882.75;5034574;28;20027;-77
2023/08/16 04:43:00;;;;;;;11.52;9.65;;;;;;;16.63;100.00;101879.13;5031245;28;20357;-77
2023/08/16 04:45:26;;;;;;;10.13;8.82;;;;;;;16.54;100.00;101874.59;5029216;28;20028;-76
2023/08/16 04:47:51;;;;;;;14.55;9.77;;;;;;;16.59;100.00;101877.69;5051440;28;20643;-77
2023/08/16 04:50:18;;;;;;;11.55;9.30;;;;;;;16.55;100.00;101882.41;5047090;28;20077;-77
2023/08/16 04:52:43;;;;;;;11.68;9.55;;;;;;;16.61;100.00;101881.06;5032232;28;20048;-77
2023/08/16 04:55:09;;;;;;;12.80;9.70;;;;;;;16.61;100.00;101881.91;5050208;28;20056;-77
2023/08/16 04:57:34;;;;;;;12.40;8.70;;;;;;;16.68;100.00;101887.59;5048313;28;20032;-77
2023/08/16 05:00:00;;;;;;;11.95;9.18;;;;;;;16.69;100.00;101891.09;5049023;28;20028;-77
2023/08/16 05:02:26;;;;;;;10.93;9.43;;;;;;;16.64;100.00;101895.91;5033021;28;20504;-77
2023/08/16 05:04:51;;;;;;;10.93;9.80;;;;;;;16.59;100.00;101901.63;5035337;28;20103;-77
2023/08/16 05:07:17;;;;;;;15.52;10.25;;;;;;;16.57;100.00;101895.59;5049529;28;20127;-77
2023/08/16 05:09:42;;;;;;;11.20;9.80;;;;;;;16.53;100.00;101888.84;5035672;28;20042;-77
2023/08/16 05:12:10;;;;;;;11.90;9.57;;;;;;;16.51;100.00;101894.28;5030433;28;20071;-77
2023/08/16 05:14:36;;;;;;;10.80;9.55;;;;;;;16.52;100.00;101895.97;5031204;28;20105;-77
2023/08/16 05:17:01;;;;;;;12.35;9.80;;;;;;;16.39;100.00;101895.25;5031097;28;20030;-77
2023/08/16 05:19:26;;;;;;;11.48;10.23;;;;;;;16.38;100.00;101900.69;5030139;28;20036;-77
2023/08/16 05:21:52;;;;;;;12.55;10.05;;;;;;;16.34;100.00;101909.88;5038765;28;20106;-77
2023/08/16 05:24:17;;;;;;;11.10;9.93;;;;;;;16.37;100.00;101907.81;5051038;28;20025;-77
2023/08/16 05:26:42;;;;;;;10.55;9.40;;;;;;;16.40;100.00;101910.22;5036532;28;20028;-77
2023/08/16 05:29:08;;;;;;;11.85;10.00;;;;;;;16.39;100.00;101913.00;5050301;28;20021;-77
2023/08/16 05:31:33;;;;;;;11.30;9.98;;;;;;;16.47;100.00;101913.25;5035024;28;20022;-77
2023/08/16 05:33:59;;;;;;;14.25;10.00;;;;;;;16.49;100.00;101916.63;5029721;28;20029;-77
2023/08/16 05:36:28;;;;;;;12.18;10.13;;;;;;;16.45;100.00;101921.34;5031363;28;20033;-77
2023/08/16 05:38:54;;;;;;;11.30;9.63;;;;;;;16.50;100.00;101915.66;5034437;28;20120;-77
2023/08/16 05:41:20;;;;;;;10.70;9.27;;;;;;;16.51;100.00;101914.69;5041202;28;20108;-77
2023/08/16 05:43:45;;;;;;;14.10;9.48;;;;;;;16.55;100.00;101918.78;5025936;28;20025;-77
2023/08/16 05:46:10;;;;;;;11.13;9.05;;;;;;;16.58;100.00;101923.84;5011308;28;20542;-77
2023/08/16 05:48:36;;;;;;;12.20;9.32;;;;;;;16.63;100.00;101923.47;5015879;28;20360;-77
2023/08/16 05:51:01;;;;;;;10.00;9.00;;;;;;;16.68;100.00;101927.44;5050095;28;20466;-77
2023/08/16 05:53:26;;;;;;;10.07;9.00;;;;;;;16.68;100.00;101934.59;5037472;28;20473;-77
2023/08/16 05:55:52;;;;;;;10.75;8.68;;;;;;;16.69;100.00;101937.13;5046445;28;20040;-77
2023/08/16 05:58:17;;;;;;;11.18;9.05;;;;;;;16.78;100.00;101941.66;5033640;28;20068;-78
2023/08/16 06:00:45;;;;;;;10.98;9.23;;;;;;;16.73;100.00;101948.34;5026896;28;20048;-78
2023/08/16 06:03:11;;;;;;;14.05;8.95;;;;;;;16.79;100.00;101950.47;5032920;28;20029;-78
2023/08/16 06:05:36;;;;;;;12.50;9.05;;;;;;;16.80;100.00;101942.38;5029679;28;20217;-78
2023/08/16 06:08:02;;;;;;;13.43;9.00;;;;;;;16.81;100.00;101943.22;5030586;28;20051;-78
2023/08/16 06:10:27;;;;;;;10.20;8.48;;;;;;;16.89;100.00;101933.66;5028816;28;20416;-78
2023/08/16 06:12:52;;;;;;;10.60;8.45;;;;;;;16.94;100.00;101933.28;5043334;28;20036;-77
2023/08/16 06:15:18;;;;;;;11.32;8.43;;;;;;;17.02;100.00;101929.97;5026451;28;20036;-77
2023/08/16 06:17:43;;;;;;;9.75;7.82;;;;;;;17.04;100.00;101930.69;5059496;28;20055;-78
2023/08/16 06:20:09;;;;;;;8.70;7.78;;;;;;;17.08;100.00;101932.09;5041126;28;20078;-78
2023/08/16 06:22:37;;;;;;;13.82;8.30;;;;;;;17.18;100.00;101938.34;5050332;28;20021;-78
2023/08/16 06:25:06;;;;;;;11.27;8.45;;;;;;;17.22;100.00;101935.31;5049229;28;20536;-78
2023/08/16 06:27:33;;;;;;;11.43;8.35;;;;;;;17.25;100.00;101934.22;5042085;28;20028;-78
2023/08/16 06:29:58;;;;;;;10.60;8.20;;;;;;;17.30;100.00;101929.34;5010096;28;20026;-78
2023/08/16 06:32:23;;;;;;;9.52;7.45;;;;;;;17.43;100.00;101935.28;5018750;28;20171;-78
2023/08/16 06:34:49;;;;;;;9.32;7.95;;;;;;;17.50;100.00;101944.44;5024116;28;20037;-78
2023/08/16 06:37:14;;;;;;;8.13;7.15;;;;;;;17.67;100.00;101934.19;5021110;28;20499;-78
2023/08/16 06:39:41;;;;;;;9.20;7.53;;;;;;;17.82;100.00;101932.84;5029127;28;20033;-78
2023/08/16 06:42:06;;;;;;;11.05;7.85;;;;;;;17.76;97.38;101928.06;5027578;28;20056;-78
2023/08/16 06:44:32;;;;;;;9.20;7.57;;;;;;;17.79;97.91;101930.47;5059709;28;20144;-78
2023/08/16 06:46:57;;;;;;;8.30;7.20;;;;;;;17.79;97.22;101927.78;5028461;28;20049;-78
2023/08/16 06:49:23;;;;;;;13.35;7.22;;;;;;;17.90;97.40;101927.69;5025785;28;20112;-78
2023/08/16 06:51:48;;;;;;;10.20;6.97;;;;;;;17.93;95.04;101930.09;5032634;28;20472;-79
2023/08/16 06:54:13;;;;;;;9.23;6.55;;;;;;;18.02;95.60;101934.63;5040297;28;20025;-80
2023/08/16 06:56:39;;;;;;;10.13;6.45;;;;;;;18.01;93.46;101948.03;5035675;28;20537;-79
2023/08/16 06:59:04;;;;;;;6.93;5.53;;;;;;;18.12;92.80;101947.97;5033816;28;20453;-80
2023/08/16 07:01:30;;;;;;;8.15;6.38;;;;;;;18.17;92.33;101951.06;5028947;28;20414;-80
2023/08/16 07:03:55;;;;;;;9.75;5.93;;;;;;;18.27;91.12;101948.41;5043773;28;20033;-78
2023/08/16 07:06:21;;;;;;;9.18;6.70;;;;;;;18.37;92.54;101952.78;5045489;28;20090;-77
2023/08/16 07:08:46;;;;;;;7.13;5.90;;;;;;;18.40;91.65;101949.00;5028725;28;20021;-77
2023/08/16 07:11:11;;;;;;;7.15;5.47;;;;;;;18.45;90.93;101952.97;5029566;28;20084;-77
2023/08/16 07:13:37;;;;;;;6.07;5.38;;;;;;;18.49;91.01;101950.88;5033407;28;20032;-77
2023/08/16 07:16:02;;;;;;;8.45;5.93;;;;;;;18.58;90.75;101947.38;5030515;28;20061;-77
2023/08/16 07:18:28;;;;;;;8.18;5.53;;;;;;;18.74;89.35;101931.69;5059669;28;20041;-77
2023/08/16 07:20:53;;;;;;;7.85;5.75;;;;;;;18.87;89.28;101938.59;5027506;28;20044;-77
2023/08/16 07:23:18;;;;;;;6.82;5.63;;;;;;;19.02;87.46;101945.16;5027526;28;20032;-77
2023/08/16 07:25:44;;;;;;;6.45;5.18;;;;;;;19.20;86.36;101945.28;5025508;28;20026;-77
2023/08/16 07:28:09;;;;;;;6.75;5.45;;;;;;;19.31;85.56;101956.66;5029428;28;20433;-77
2023/08/16 07:30:38;;;;;;;10.20;5.47;;;;;;;19.42;85.95;101955.63;5029428;28;20112;-77
2023/08/16 07:33:04;;;;;;;6.25;5.32;;;;;;;19.48;85.31;101956.88;5028869;28;20083;-76
2023/08/16 07:35:33;;;;;;;7.13;4.90;;;;;;;19.66;85.45;101953.38;5030822;28;20032;-77
2023/08/16 07:38:01;;;;;;;9.10;5.60;;;;;;;19.69;83.09;101949.56;5037882;28;20108;-77
2023/08/16 07:40:27;;;;;;;8.25;5.07;;;;;;;19.96;83.65;101956.75;5030885;28;20045;-77
2023/08/16 07:42:52;;;;;;;8.98;4.90;;;;;;;20.20;82.22;101951.72;5038786;28;20398;-77
2023/08/16 07:45:17;;;;;;;5.82;4.38;;;;;;;20.44;79.88;101953.03;5037540;28;20486;-77
2023/08/16 07:47:43;;;;;;;11.88;4.65;;;;;;;20.87;79.72;101958.47;5028001;28;20071;-77
2023/08/16 07:50:09;;;;;;;8.40;4.28;;;;;;;21.03;77.43;101962.28;5028162;28;20033;-77
2023/08/16 07:52:34;;;;;;;6.25;3.90;;;;;;;21.33;77.28;101963.72;5028932;28;20392;-77
2023/08/16 07:54:59;;;;;;;5.78;3.78;;;;;;;21.33;76.38;101958.38;5029644;28;20080;-76
2023/08/16 07:57:25;;;;;;;6.72;3.95;;;;;;;21.25;75.52;101960.00;5035291;28;20033;-77
2023/08/16 07:59:50;;;;;;;7.05;4.00;;;;;;;21.32;74.69;101962.06;5031594;28;20029;-77
2023/08/16 08:02:15;;;;;;;6.90;3.67;;;;;;;21.36;73.92;101958.06;5027463;28;20080;-77
2023/08/16 08:04:45;;;;;;;6.00;3.90;;;;;;;21.33;74.78;101969.94;5046299;28;20480;-77
2023/08/16 08:07:11;;;;;;;4.82;3.53;;;;;;;21.54;73.26;101965.03;5028686;28;20103;-77
2023/08/16 08:09:36;;;;;;;10.60;4.00;;;;;;;21.73;72.60;101972.03;5027285;28;20083;-77
2023/08/16 08:12:02;;;;;;;5.45;3.40;;;;;;;21.83;71.02;101970.06;5028506;28;20112;-77
2023/08/16 08:14:27;;;;;;;5.80;2.63;;;;;;;21.79;69.46;101976.75;5049065;28;20032;-77
2023/08/16 08:16:53;;;;;;;5.88;2.85;;;;;;;21.78;69.45;101982.28;5047257;28;20020;-77
2023/08/16 08:19:19;;;;;;;5.68;1.98;;;;;;;21.87;67.16;101984.00;5045111;28;20041;-77
2023/08/16 08:21:44;;;;;;;5.10;2.30;;;;;;;21.83;66.54;101975.44;5033871;28;20028;-77
2023/08/16 08:24:10;;;;;;;6.40;2.05;;;;;;;21.94;67.89;101979.66;5046981;28;20049;-77
2023/08/16 08:26:35;;;;;;;5.40;2.25;;;;;;;22.23;67.78;101970.44;5045708;28;20025;-77
2023/08/16 08:29:01;;;;;;;5.60;2.78;;;;;;;22.11;66.99;101965.38;5036062;28;20264;-77
2023/08/16 08:31:26;;;;;;;5.35;2.60;;;;;;;22.30;67.70;101966.94;5050495;28;20028;-77
2023/08/16 08:33:51;;;;;;;7.15;2.15;;;;;;;22.45;64.52;101975.22;5048966;28;20040;-77
2023/08/16 08:36:17;;;;;;;4.82;2.80;;;;;;;22.55;64.64;101967.88;5046844;28;20021;-77
2023/08/16 08:38:42;;;;;;;5.47;1.90;;;;;;;22.72;63.78;101974.94;5030037;28;20028;-77
2023/08/16 08:41:10;;;;;;;6.28;2.20;;;;;;;22.75;64.62;101976.44;5030820;28;20112;-77
2023/08/16 08:43:40;;;;;;;5.72;2.15;;;;;;;22.56;64.55;101987.50;5031152;28;20021;-77
2023/08/16 08:46:06;;;;;;;5.53;2.28;;;;;;;22.48;64.29;101978.41;5033320;28;20082;-77
2023/08/16 08:48:32;;;;;;;4.25;2.42;;;;;;;22.26;64.48;101983.53;5030453;28;20045;-77
2023/08/16 08:50:58;;;;;;;4.97;2.15;;;;;;;22.12;65.46;101985.00;5040212;28;20029;-77
2023/08/16 08:53:25;;;;;;;7.72;2.70;;;;;;;21.94;66.18;101989.53;5038893;28;20025;-77
2023/08/16 08:55:52;;;;;;;7.60;2.65;;;;;;;21.84;66.34;102000.38;5037424;28;20070;-77
2023/08/16 08:58:19;;;;;;;5.30;2.50;;;;;;;21.84;66.33;101995.03;5033943;28;20025;-77
2023/08/16 09:00:45;;;;;;;6.70;2.35;;;;;;;21.76;67.36;101997.66;5061368;28;20481;-77
2023/08/16 09:03:12;;;;;;;4.20;2.20;;;;;;;21.97;69.25;101994.59;5059469;28;20029;-77
2023/08/16 09:05:39;;;;;;;5.53;2.20;;;;;;;21.96;66.96;101998.25;5047876;28;20027;-78
2023/08/16 09:08:09;;;;;;;5.07;2.17;;;;;;;22.05;68.38;101992.00;5034294;28;20069;-77
2023/08/16 09:10:38;;;;;;;4.57;2.30;;;;;;;22.04;67.11;101995.69;5036536;28;20028;-77
2023/08/16 09:13:05;;;;;;;5.68;2.08;;;;;;;22.18;65.59;101997.75;5030045;28;20036;-77
2023/08/16 09:15:30;;;;;;;4.75;2.47;;;;;;;22.16;64.51;101997.06;5028771;28;20036;-77
2023/08/16 09:18:21;;;;;;;6.50;2.58;;;;;;;22.54;66.57;102002.91;5030023;28;20018;-76
2023/08/16 09:20:46;;;;;;;5.65;2.67;;;;;;;22.43;63.67;101987.97;5031019;28;20083;-76
2023/08/16 09:23:13;;;;;;;4.00;2.05;;;;;;;22.45;65.09;101986.78;5043048;28;20021;-76
2023/08/16 09:25:39;;;;;;;8.43;2.50;;;;;;;22.23;63.28;101992.75;5029605;28;20027;-78
2023/08/16 09:28:08;;;;;;;5.35;2.20;;;;;;;22.17;64.41;101998.75;5033763;28;20056;-76
2023/08/16 09:30:34;;;;;;;5.68;2.80;;;;;;;22.17;65.22;101990.72;5037631;28;20028;-76
2023/08/16 09:33:00;;;;;;;8.70;2.78;;;;;;;22.16;65.80;101999.75;5034229;28;20390;-76
2023/08/16 09:35:29;;;;;;;7.18;2.72;;;;;;;22.25;65.76;101993.41;5027832;28;20026;-77
2023/08/16 09:37:58;;;;;;;5.45;2.65;;;;;;;22.38;65.30;101990.25;5029579;28;20033;-77
2023/08/16 09:40:24;;;;;;;7.18;2.78;;;;;;;22.37;64.93;101986.75;5030006;28;20352;-77
2023/08/16 09:42:50;;;;;;;7.07;2.58;;;;;;;22.52;65.16;101998.53;5034278;28;20036;-77
2023/08/16 09:45:15;;;;;;;7.07;2.88;;;;;;;22.62;64.38;101986.81;5035871;28;20025;-77
2023/08/16 09:47:44;;;;;;;4.95;2.53;;;;;;;22.78;65.22;101985.00;5036511;28;20128;-77
2023/08/16 09:50:10;;;;;;;5.68;3.30;;;;;;;22.80;64.93;101987.50;5031459;28;20036;-77
2023/08/16 09:52:36;;;;;;;7.88;3.22;;;;;;;22.90;65.01;101977.50;5030878;28;20100;-77
2023/08/16 09:55:03;;;;;;;5.65;3.83;;;;;;;22.87;65.00;101983.22;5039988;28;20700;-77
2023/08/16 09:57:29;;;;;;;7.47;3.60;;;;;;;22.76;64.24;101983.50;5030090;28;20036;-77
2023/08/16 09:59:55;;;;;;;8.95;4.38;;;;;;;22.80;64.44;101982.16;5037111;28;20067;-77
2023/08/16 10:02:21;;;;;;;6.97;2.58;;;;;;;22.88;65.80;101984.91;5038909;28;20314;-77
2023/08/16 10:04:48;;;;;;;8.30;3.40;;;;;;;22.90;63.46;101985.56;5030417;28;20057;-77
2023/08/16 10:07:15;;;;;;;5.85;3.00;;;;;;;22.94;64.93;101978.03;5030177;28;20029;-77
2023/08/16 10:09:44;;;;;;;7.43;3.20;;;;;;;22.90;64.84;101976.69;5045102;28;20032;-77
2023/08/16 10:12:10;;;;;;;6.60;3.55;;;;;;;22.82;64.69;101974.84;5050541;28;20032;-76
2023/08/16 10:14:37;;;;;;;5.40;3.25;;;;;;;22.84;66.35;101972.81;5049068;28;20481;-76
2023/08/16 10:17:06;;;;;;;6.75;3.53;;;;;;;22.72;65.46;101968.72;5043423;28;20037;-76
2023/08/16 10:19:37;;;;;;;7.80;3.40;;;;;;;22.75;66.09;101965.72;5022261;28;20048;-77
2023/08/16 10:22:09;;;;;;;6.28;3.22;;;;;;;22.81;66.17;101974.00;5028023;28;20116;-76
2023/08/16 10:24:35;;;;;;;;;;;;;;;23.05;67.41;101981.22;5030635;28;20071;-76
2023/08/16 10:27:04;;;;;;;8.70;3.70;;;;;;;22.88;65.39;101979.53;5039585;28;19947;-76
2023/08/16 10:29:37;;;;;;;6.97;4.00;;;;;;;22.84;66.44;101980.88;5041360;28;20068;-77
2023/08/16 10:32:08;;;;;;;9.05;4.40;;;;;;;22.80;66.50;101979.47;5027895;28;20026;-76
2023/08/16 10:34:34;;;;;;;7.38;4.35;;;;;;;22.71;66.38;101970.56;5033646;28;20030;-77
2023/08/16 10:37:00;;;;;;;8.02;3.22;;;;;;;22.96;66.68;101971.47;5028973;28;20075;-77
2023/08/16 10:39:29;;;;;;;8.23;4.18;;;;;;;22.93;65.46;101976.34;5029305;28;20428;-77
2023/08/16 10:42:05;;;;;;;7.32;4.00;;;;;;;22.90;66.49;101972.16;5023133;28;20028;-76
2023/08/16 10:44:31;;;;;;;7.75;4.30;;;;;;;23.10;65.51;101968.13;5031171;28;20597;-77
2023/08/16 10:46:57;;;;;;;8.20;4.40;;;;;;;23.22;65.62;101975.84;5039693;28;20496;-76
2023/08/16 10:49:22;;;;;;;5.90;3.90;;;;;;;23.16;63.22;101966.59;5028458;28;20029;-77
2023/08/16 10:51:51;;;;;;;7.45;3.67;;;;;;;23.26;65.02;101969.13;5041716;28;20042;-76
2023/08/16 10:54:17;;;;;;;6.18;3.90;;;;;;;23.16;65.10;101961.22;5041302;28;20404;-76
2023/08/16 10:56:44;;;;;;;7.25;3.95;;;;;;;23.26;64.76;101963.75;5029529;28;20026;-76
2023/08/16 10:59:11;;;;;;;8.57;4.18;;;;;;;23.24;64.61;101973.84;5021503;28;20084;-76
2023/08/16 11:01:44;;;;;;;8.07;3.83;;;;;;;23.27;65.06;101973.50;5025615;28;20026;-76
2023/08/16 11:04:09;;;;;;;8.23;3.47;;;;;;;23.26;65.04;101971.81;5022715;28;20056;-76
2023/08/16 11:06:39;;;;;;;6.65;3.58;;;;;;;23.26;65.07;101967.28;5027630;28;20478;-76
2023/08/16 11:09:04;;;;;;;5.63;3.60;;;;;;;23.29;65.05;101968.78;5029212;28;20018;-76
2023/08/16 11:11:30;;;;;;;5.45;3.67;;;;;;;23.48;65.50;101971.09;5028379;28;20495;-77
2023/08/16 11:13:59;;;;;;;8.25;3.70;;;;;;;23.50;62.72;101979.00;5038607;28;20116;-77
2023/08/16 11:16:24;;;;;;;8.15;4.25;;;;;;;23.61;62.59;101971.44;5031832;28;20475;-76